createdAt,value
2022-12-25T00:02:26.649Z,15.00
2022-12-25T00:04:54.812Z,14.40
2022-12-25T00:07:23.034Z,17.50
2022-12-25T00:09:51.008Z,16.40
2022-12-25T00:12:21.125Z,15.00
2022-12-25T00:14:49.116Z,14.60
2022-12-25T00:17:17.246Z,14.60
2022-12-25T00:19:45.329Z,13.20
2022-12-25T00:22:13.498Z,13.20
2022-12-25T00:24:41.523Z,12.10
2022-12-25T00:27:09.609Z,15.00
2022-12-25T00:29:37.705Z,12.90
2022-12-25T00:32:05.710Z,11.70
2022-12-25T00:34:33.904Z,11.50
2022-12-25T00:37:01.904Z,10.90
2022-12-25T00:39:29.910Z,11.50
2022-12-25T00:42:16.832Z,8.70
2022-12-25T00:44:46.408Z,11.40
2022-12-25T00:47:15.771Z,13.50
2022-12-25T00:49:44.067Z,9.60
2022-12-25T00:52:12.173Z,14.70
2022-12-25T00:54:40.205Z,14.20
2022-12-25T00:57:08.246Z,11.70
2022-12-25T00:59:36.333Z,12.40
2022-12-25T01:02:23.322Z,13.70
2022-12-25T01:04:54.777Z,12.00
2022-12-25T01:07:25.336Z,10.30
2022-12-25T01:10:12.475Z,11.80
2022-12-25T01:12:42.561Z,9.20
2022-12-25T01:15:12.317Z,11.10
2022-12-25T01:17:41.547Z,13.60
2022-12-25T01:20:11.532Z,15.20
2022-12-25T01:22:39.898Z,14.90
2022-12-25T01:25:10.780Z,15.10
2022-12-25T01:27:41.153Z,18.40
2022-12-25T01:30:10.103Z,10.80
2022-12-25T01:32:38.493Z,19.30
2022-12-25T01:35:06.963Z,11.80
2022-12-25T01:37:35.179Z,11.80
2022-12-25T01:40:03.984Z,10.90
2022-12-25T01:45:36.993Z,8.80
2022-12-25T01:48:12.039Z,11.30
2022-12-25T01:50:44.589Z,11.70
2022-12-25T01:53:13.427Z,9.80
2022-12-25T01:58:14.398Z,25.50
2022-12-25T02:00:42.833Z,28.40
2022-12-25T02:03:11.076Z,33.20
2022-12-25T02:05:39.965Z,15.00
2022-12-25T02:10:39.213Z,7.20
2022-12-25T02:13:08.436Z,15.10
2022-12-25T02:15:48.341Z,13.30
2022-12-25T02:18:29.307Z,11.90
2022-12-25T02:21:30.027Z,13.50
2022-12-25T02:24:20.618Z,12.50
2022-12-25T02:27:14.599Z,9.10
2022-12-25T02:30:07.509Z,11.50
2022-12-25T02:32:47.251Z,11.80
2022-12-25T02:35:24.216Z,11.30
2022-12-25T02:38:02.330Z,11.20
2022-12-25T02:40:56.113Z,10.00
2022-12-25T02:43:57.362Z,8.50
2022-12-25T02:46:45.981Z,12.30
2022-12-25T02:52:31.488Z,13.20
2022-12-25T02:55:22.897Z,16.70
2022-12-25T02:58:13.285Z,13.20
2022-12-25T03:01:11.217Z,15.20
2022-12-25T03:04:00.321Z,13.90
2022-12-25T03:06:45.849Z,13.50
2022-12-25T03:09:41.638Z,15.70
2022-12-25T03:12:27.699Z,20.20
2022-12-25T03:15:14.644Z,8.50
2022-12-25T03:17:43.341Z,8.90
2022-12-25T03:20:30.158Z,13.40
2022-12-25T03:23:17.343Z,12.00
2022-12-25T03:26:03.966Z,9.60
2022-12-25T03:28:32.056Z,18.20
2022-12-25T03:31:17.397Z,35.20
2022-12-25T03:34:19.779Z,31.10
2022-12-25T03:37:43.528Z,36.30
2022-12-25T03:40:51.904Z,30.00
2022-12-25T03:43:44.678Z,25.50
2022-12-25T03:46:35.065Z,26.90
2022-12-25T03:49:33.684Z,16.50
2022-12-25T03:55:13.108Z,29.80
2022-12-25T03:57:59.617Z,27.90
2022-12-25T04:00:46.286Z,23.50
2022-12-25T04:03:33.040Z,21.50
2022-12-25T04:06:20.292Z,25.10
2022-12-25T04:09:06.733Z,21.70
2022-12-25T04:12:00.477Z,34.80
2022-12-25T04:14:49.229Z,21.40
2022-12-25T04:17:36.100Z,10.30
2022-12-25T04:20:23.254Z,47.10
2022-12-25T04:23:09.837Z,26.80
2022-12-25T04:25:56.331Z,27.10
2022-12-25T04:28:56.750Z,21.70
2022-12-25T04:31:43.356Z,16.70
2022-12-25T04:34:37.958Z,20.50
2022-12-25T04:37:05.963Z,17.20
2022-12-25T04:39:34.260Z,17.30
2022-12-25T04:42:02.475Z,16.10
2022-12-25T04:44:30.461Z,16.80
2022-12-25T04:46:58.497Z,14.00
2022-12-25T04:49:26.756Z,17.40
2022-12-25T04:51:54.843Z,24.30
2022-12-25T04:54:23.345Z,23.30
2022-12-25T04:56:51.362Z,21.70
2022-12-25T04:59:19.398Z,25.20
2022-12-25T05:01:47.562Z,27.10
2022-12-25T05:04:15.853Z,24.80
2022-12-25T05:06:43.971Z,46.80
2022-12-25T05:09:12.055Z,29.20
2022-12-25T05:11:40.055Z,24.20
2022-12-25T05:14:08.079Z,19.80
2022-12-25T05:16:36.379Z,20.10
2022-12-25T05:19:04.641Z,14.70
2022-12-25T05:21:32.684Z,19.60
2022-12-25T05:24:00.762Z,12.90
2022-12-25T05:26:29.058Z,14.80
2022-12-25T05:28:57.195Z,12.50
2022-12-25T05:31:25.287Z,11.20
2022-12-25T05:33:53.391Z,11.20
2022-12-25T05:36:21.391Z,21.60
2022-12-25T05:38:50.422Z,13.90
2022-12-25T05:41:18.653Z,13.50
2022-12-25T05:43:46.841Z,22.70
2022-12-25T05:46:15.084Z,31.00
2022-12-25T05:48:43.547Z,25.50
2022-12-25T05:51:14.237Z,25.80
2022-12-25T05:53:43.533Z,26.10
2022-12-25T05:56:12.336Z,26.00
2022-12-25T06:01:19.680Z,37.20
2022-12-25T06:03:47.975Z,22.80
2022-12-25T06:06:16.249Z,33.20
2022-12-25T06:08:44.434Z,29.30
2022-12-25T06:11:14.487Z,26.80
2022-12-25T06:13:43.284Z,32.30
2022-12-25T06:18:44.852Z,27.80
2022-12-25T06:21:15.101Z,27.60
2022-12-25T06:23:43.546Z,28.90
2022-12-25T06:26:14.829Z,31.40
2022-12-25T06:28:43.684Z,36.30
2022-12-25T06:33:42.792Z,41.00
2022-12-25T06:36:19.887Z,47.20
2022-12-25T06:38:48.214Z,66.10
2022-12-25T06:41:21.962Z,63.10
2022-12-25T06:43:56.124Z,73.00
2022-12-25T06:46:26.487Z,58.80
2022-12-25T06:48:55.675Z,66.30
2022-12-25T06:51:26.581Z,28.10
2022-12-25T06:53:55.902Z,36.50
2022-12-25T06:56:27.444Z,28.60
2022-12-25T06:58:58.754Z,53.20
2022-12-25T07:01:36.030Z,54.40
2022-12-25T07:04:07.891Z,83.50
2022-12-25T07:06:35.863Z,217.60
2022-12-25T07:09:03.954Z,105.90
2022-12-25T07:11:32.122Z,76.10
2022-12-25T07:14:00.161Z,87.20
2022-12-25T07:16:28.319Z,70.70
2022-12-25T07:18:56.339Z,97.30
2022-12-25T07:21:24.430Z,87.90
2022-12-25T07:23:52.682Z,66.90
2022-12-25T07:26:21.052Z,54.60
2022-12-25T07:28:49.071Z,49.80
2022-12-25T07:31:18.189Z,50.10
2022-12-25T07:33:46.334Z,44.90
2022-12-25T07:36:15.403Z,52.30
2022-12-25T07:38:44.216Z,52.40
2022-12-25T07:41:13.248Z,62.20
2022-12-25T07:43:41.848Z,56.70
2022-12-25T07:46:11.397Z,54.30
2022-12-25T07:48:39.721Z,20.90
2022-12-25T07:51:12.102Z,27.10
2022-12-25T07:53:41.018Z,21.80
2022-12-25T07:58:41.193Z,24.90
2022-12-25T08:01:20.304Z,33.00
2022-12-25T08:03:54.116Z,21.40
2022-12-25T08:06:26.885Z,16.60
2022-12-25T08:09:02.479Z,11.80
2022-12-25T08:11:30.566Z,19.20
2022-12-25T08:13:58.837Z,13.80
2022-12-25T08:16:26.936Z,12.80
2022-12-25T08:18:55.081Z,12.20
2022-12-25T08:21:23.091Z,11.70
2022-12-25T08:23:51.194Z,16.40
2022-12-25T08:26:21.489Z,19.10
2022-12-25T08:28:50.477Z,16.70
2022-12-25T08:31:28.064Z,28.50
2022-12-25T08:33:58.103Z,18.80
2022-12-25T08:36:26.700Z,32.20
2022-12-25T08:39:02.169Z,20.50
2022-12-25T08:41:32.165Z,36.70
2022-12-25T08:44:00.327Z,20.90
2022-12-25T08:46:28.409Z,19.60
2022-12-25T08:48:56.972Z,43.70
2022-12-25T08:51:26.294Z,37.10
2022-12-25T08:53:59.565Z,19.90
2022-12-25T08:56:29.303Z,17.90
2022-12-25T08:58:57.656Z,31.60
2022-12-25T09:01:25.877Z,13.40
2022-12-25T09:03:53.931Z,11.60
2022-12-25T09:06:21.948Z,13.30
2022-12-25T09:08:50.186Z,11.90
2022-12-25T09:11:19.959Z,21.50
2022-12-25T09:13:48.928Z,24.30
2022-12-25T09:18:46.337Z,12.70
2022-12-25T09:21:16.082Z,11.90
2022-12-25T09:23:44.744Z,8.10
2022-12-25T09:26:16.136Z,8.10
2022-12-25T09:28:50.760Z,8.90
2022-12-25T09:31:22.289Z,8.60
2022-12-25T09:33:51.804Z,15.60
2022-12-25T09:36:23.449Z,10.90
2022-12-25T09:38:52.809Z,8.40
2022-12-25T09:41:23.857Z,11.00
2022-12-25T09:43:58.586Z,9.60
2022-12-25T09:46:36.922Z,9.60
2022-12-25T09:49:27.279Z,16.00
2022-12-25T09:52:02.798Z,8.90
2022-12-25T09:54:37.122Z,12.50
2022-12-25T09:57:05.973Z,9.50
2022-12-25T09:59:34.007Z,6.30
2022-12-25T10:02:37.122Z,14.00
2022-12-25T10:05:27.534Z,9.70
2022-12-25T10:08:30.448Z,12.90
2022-12-25T10:11:25.843Z,12.70
2022-12-25T10:14:16.550Z,9.30
2022-12-25T10:17:00.001Z,9.80
2022-12-25T10:19:44.068Z,13.90
2022-12-25T10:22:30.353Z,8.80
2022-12-25T10:25:01.064Z,14.00
2022-12-25T10:27:38.130Z,11.40
2022-12-25T10:30:17.157Z,8.30
2022-12-25T10:32:47.047Z,7.20
2022-12-25T10:35:21.213Z,8.40
2022-12-25T10:38:01.108Z,22.70
2022-12-25T10:40:44.338Z,7.90
2022-12-25T10:43:18.343Z,8.20
2022-12-25T10:45:48.994Z,8.10
2022-12-25T10:48:24.197Z,10.90
2022-12-25T10:50:52.702Z,8.70
2022-12-25T10:53:24.444Z,10.70
2022-12-25T10:56:01.545Z,11.90
2022-12-25T10:58:31.747Z,8.90
2022-12-25T11:01:07.184Z,8.60
2022-12-25T11:03:39.241Z,7.60
2022-12-25T11:06:21.336Z,15.50
2022-12-25T11:08:59.189Z,9.20
2022-12-25T11:11:29.191Z,8.10
2022-12-25T11:14:02.218Z,11.70
2022-12-25T11:16:32.900Z,11.90
2022-12-25T11:19:01.160Z,12.20
2022-12-25T11:21:35.133Z,11.50
2022-12-25T11:24:05.983Z,17.70
2022-12-25T11:26:49.220Z,15.10
2022-12-25T11:29:43.378Z,13.40
2022-12-25T11:32:19.335Z,10.50
2022-12-25T11:34:49.171Z,7.70
2022-12-25T11:37:24.020Z,11.30
2022-12-25T11:39:52.166Z,29.10
2022-12-25T11:42:29.878Z,48.40
2022-12-25T11:45:24.293Z,23.40
2022-12-25T11:48:01.138Z,15.70
2022-12-25T11:50:30.962Z,31.00
2022-12-25T11:53:03.402Z,56.70
2022-12-25T11:55:46.407Z,60.20
2022-12-25T11:58:20.375Z,16.20
2022-12-25T12:00:51.964Z,53.10
2022-12-25T12:03:31.730Z,18.00
2022-12-25T12:06:15.219Z,9.60
2022-12-25T12:08:44.529Z,10.60
2022-12-25T12:11:25.493Z,13.90
2022-12-25T12:13:59.209Z,9.50
2022-12-25T12:16:27.703Z,7.40
2022-12-25T12:18:55.843Z,8.20
2022-12-25T12:21:30.258Z,7.40
2022-12-25T12:24:17.130Z,8.60
2022-12-25T12:26:47.277Z,6.20
2022-12-25T12:29:43.754Z,7.00
2022-12-25T12:32:20.859Z,6.70
2022-12-25T12:34:52.044Z,5.70
2022-12-25T12:37:31.742Z,7.00
2022-12-25T12:40:00.188Z,5.10
2022-12-25T12:42:31.895Z,5.90
2022-12-25T12:45:10.299Z,6.10
2022-12-25T12:47:43.226Z,7.90
2022-12-25T12:50:40.088Z,6.30
2022-12-25T12:53:22.412Z,7.20
2022-12-25T12:55:52.061Z,4.90
2022-12-25T12:58:36.127Z,7.40
2022-12-25T13:01:32.153Z,10.10
2022-12-25T13:04:09.509Z,5.00
2022-12-25T13:06:46.309Z,5.00
2022-12-25T13:09:28.555Z,7.80
2022-12-25T13:11:57.045Z,13.90
2022-12-25T13:14:25.647Z,20.10
2022-12-25T13:16:54.912Z,9.00
2022-12-25T13:19:26.973Z,5.90
2022-12-25T13:22:01.045Z,5.40
2022-12-25T13:24:32.194Z,4.70
2022-12-25T13:27:01.024Z,4.70
2022-12-25T13:32:03.856Z,4.80
2022-12-25T13:34:36.563Z,4.90
2022-12-25T13:37:16.682Z,6.80
2022-12-25T13:39:50.298Z,6.20
2022-12-25T13:42:22.820Z,7.10
2022-12-25T13:44:53.817Z,6.10
2022-12-25T13:47:35.902Z,5.30
2022-12-25T13:50:20.587Z,5.90
2022-12-25T13:52:49.174Z,6.30
2022-12-25T13:55:21.144Z,6.70
2022-12-25T13:58:04.642Z,8.30
2022-12-25T14:00:32.585Z,10.90
2022-12-25T14:03:01.080Z,12.60
2022-12-25T14:08:00.832Z,11.80
2022-12-25T14:10:38.667Z,15.40
2022-12-25T14:13:12.934Z,13.30
2022-12-25T14:15:42.159Z,15.30
2022-12-25T14:18:21.778Z,26.20
2022-12-25T14:21:21.312Z,20.60
2022-12-25T14:23:50.460Z,27.00
2022-12-25T14:26:28.776Z,24.00
2022-12-25T14:29:05.848Z,28.00
2022-12-25T14:31:35.509Z,24.20
2022-12-25T14:34:05.909Z,25.30
2022-12-25T14:36:34.603Z,20.20
2022-12-25T14:39:06.292Z,22.20
2022-12-25T14:41:42.130Z,23.10
2022-12-25T14:44:31.725Z,26.70
2022-12-25T14:47:05.147Z,24.10
2022-12-25T14:49:33.253Z,18.10
2022-12-25T14:52:24.911Z,17.80
2022-12-25T14:54:58.342Z,16.80
2022-12-25T14:57:34.026Z,20.10
2022-12-25T15:00:08.070Z,34.30
2022-12-25T15:02:46.015Z,30.60
2022-12-25T15:05:25.898Z,33.30
2022-12-25T15:08:10.347Z,31.10
2022-12-25T15:13:30.067Z,41.50
2022-12-25T15:16:13.658Z,27.60
2022-12-25T15:18:46.158Z,34.10
2022-12-25T15:21:25.836Z,41.30
2022-12-25T15:23:55.973Z,45.60
2022-12-25T15:26:25.580Z,54.20
2022-12-25T15:28:53.601Z,44.00
2022-12-25T15:31:23.494Z,50.20
2022-12-25T15:33:52.972Z,50.30
2022-12-25T15:36:21.884Z,47.30
2022-12-25T15:38:50.337Z,79.40
2022-12-25T15:41:53.030Z,122.70
2022-12-25T15:44:21.331Z,68.30
2022-12-25T15:46:50.009Z,52.20
2022-12-25T15:49:18.762Z,55.90
2022-12-25T15:51:47.209Z,67.30
2022-12-25T15:54:15.547Z,74.10
2022-12-25T15:56:45.310Z,113.40
2022-12-25T15:59:15.840Z,112.80
2022-12-25T16:01:48.491Z,106.30
2022-12-25T16:04:16.614Z,101.10
2022-12-25T16:06:44.903Z,132.10
2022-12-25T16:09:14.217Z,115.50
2022-12-25T16:11:43.493Z,116.20
2022-12-25T16:14:12.553Z,101.50
2022-12-25T16:16:41.901Z,95.90
2022-12-25T16:19:10.042Z,86.90
2022-12-25T16:21:42.416Z,86.90
2022-12-25T16:24:10.972Z,92.40
2022-12-25T16:26:39.040Z,98.70
2022-12-25T16:29:07.860Z,94.30
2022-12-25T16:31:37.787Z,95.40
2022-12-25T16:34:09.059Z,77.00
2022-12-25T16:36:39.266Z,67.80
2022-12-25T16:39:08.542Z,58.40
2022-12-25T16:41:36.616Z,82.30
2022-12-25T16:44:10.222Z,69.80
2022-12-25T16:46:40.282Z,72.00
2022-12-25T16:49:08.943Z,74.30
2022-12-25T16:51:37.366Z,61.70
2022-12-25T16:54:05.740Z,61.90
2022-12-25T16:56:36.740Z,62.80
2022-12-25T16:59:05.136Z,78.70
2022-12-25T17:01:33.247Z,73.20
2022-12-25T17:04:01.648Z,70.80
2022-12-25T17:06:29.897Z,68.00
2022-12-25T17:08:59.803Z,63.80
2022-12-25T17:11:30.820Z,70.10
2022-12-25T17:14:02.532Z,71.40
2022-12-25T17:16:34.641Z,73.60
2022-12-25T17:19:08.014Z,76.00
2022-12-25T17:21:38.386Z,82.70
2022-12-25T17:24:07.287Z,76.30
2022-12-25T17:26:35.546Z,99.50
2022-12-25T17:29:03.819Z,89.30
2022-12-25T17:31:32.170Z,94.60
2022-12-25T17:34:01.806Z,89.10
2022-12-25T17:36:30.545Z,93.50
2022-12-25T17:39:00.949Z,67.40
2022-12-25T17:41:29.117Z,100.50
2022-12-25T17:43:57.732Z,94.10
